Time;durP1;ratioP1;P1;durP2;ratioP2;P2;SDS_P1;SDS_P2;PMS_P1;PMS_P2;Temp;Humidity;BMP_temperature;BMP_pressure;BME280_temperature;BME280_humidity;BME280_pressure;Samples;Min_cycle;Max_cycle;Signal;HPM_P1;HPM_P2
2023/06/12 00:01:24;;;;;;;14.40;9.70;;;;;;;20.86;60.84;100113.56;5065483;28;20048;-48
2023/06/12 00:03:50;;;;;;;13.02;9.10;;;;;;;20.85;60.79;100114.50;5058165;28;20048;-53
2023/06/12 00:06:17;;;;;;;12.15;9.15;;;;;;;20.83;61.29;100113.69;5056262;28;20055;-55
2023/06/12 00:08:44;;;;;;;16.08;9.32;;;;;;;20.83;61.27;100118.13;5065640;28;20037;-56
2023/06/12 00:11:12;;;;;;;13.60;9.93;;;;;;;20.81;61.39;100111.13;5064891;28;20044;-54
2023/06/12 00:13:41;;;;;;;12.43;10.48;;;;;;;20.80;61.35;100106.81;5029886;28;20040;-52
2023/06/12 00:16:08;;;;;;;11.55;9.27;;;;;;;20.80;61.20;100105.94;5061488;28;20119;-56
2023/06/12 00:18:38;;;;;;;13.35;9.15;;;;;;;20.78;61.35;100108.63;5063759;28;20107;-58
2023/06/12 00:21:08;;;;;;;12.35;9.13;;;;;;;20.79;61.24;100106.88;5045416;28;20135;-53
2023/06/12 00:23:36;;;;;;;14.65;9.18;;;;;;;20.78;61.17;100105.16;5057231;28;20056;-56
2023/06/12 00:26:03;;;;;;;12.73;9.25;;;;;;;20.77;61.67;100104.31;5045111;28;20047;-53
2023/06/12 00:28:31;;;;;;;13.48;9.85;;;;;;;20.76;61.62;100107.00;5046461;28;20059;-56
2023/06/12 00:30:58;;;;;;;10.63;8.98;;;;;;;20.74;61.52;100104.44;5063551;28;20124;-52
2023/06/12 00:33:24;;;;;;;12.77;9.43;;;;;;;20.74;61.35;100100.97;5063560;28;20044;-51
2023/06/12 00:35:52;;;;;;;12.43;10.07;;;;;;;20.73;61.66;100101.91;5060022;28;20044;-48
2023/06/12 00:38:20;;;;;;;12.98;8.98;;;;;;;20.70;61.70;100102.88;5061132;28;20057;-56
2023/06/12 00:40:48;;;;;;;11.60;8.48;;;;;;;20.69;61.49;100106.44;5041858;28;20041;-52
2023/06/12 00:43:15;;;;;;;11.05;8.68;;;;;;;20.67;61.97;100098.59;5040869;28;20454;-54
2023/06/12 00:45:42;;;;;;;12.95;8.50;;;;;;;20.68;61.71;100105.56;5061365;28;20381;-52
2023/06/12 00:48:09;;;;;;;13.27;8.48;;;;;;;20.67;61.96;100103.03;5063444;28;20067;-51
2023/06/12 00:50:39;;;;;;;12.95;10.20;;;;;;;20.65;62.09;100104.84;5058239;28;20053;-51
2023/06/12 00:53:07;;;;;;;12.95;8.75;;;;;;;20.65;61.75;100102.22;5060546;28;20084;-55
2023/06/12 00:55:34;;;;;;;13.88;9.40;;;;;;;20.63;62.04;100106.69;5057553;28;20143;-53
2023/06/12 00:58:01;;;;;;;14.38;10.30;;;;;;;20.62;61.69;100102.34;5039594;28;20044;-54
2023/06/12 01:00:29;;;;;;;13.65;9.88;;;;;;;20.60;61.88;100099.78;5063313;28;20059;-56
2023/06/12 01:03:04;;;;;;;15.75;10.48;;;;;;;20.55;61.73;100102.63;5047177;28;20052;-50
2023/06/12 01:05:35;;;;;;;14.82;10.20;;;;;;;20.56;62.22;100098.22;5066268;28;20101;-56
2023/06/12 01:08:42;;;;;;;15.02;10.20;;;;;;;20.46;62.25;100099.56;5061051;28;20079;-49
2023/06/12 01:11:12;;;;;;;13.40;9.45;;;;;;;20.51;61.88;100103.69;5040162;28;20044;-52
2023/06/12 01:13:38;;;;;;;17.58;10.25;;;;;;;20.51;61.97;100098.44;5048651;28;20312;-51
2023/06/12 01:16:05;;;;;;;11.23;8.80;;;;;;;20.48;62.30;100093.31;5066127;28;20047;-53
2023/06/12 01:18:33;;;;;;;14.10;9.90;;;;;;;20.46;62.37;100095.13;5067275;28;20051;-54
2023/06/12 01:21:05;;;;;;;11.73;8.52;;;;;;;20.46;62.57;100089.88;5064216;28;20547;-53
2023/06/12 01:29:20;;;;;;;9.90;7.03;;;;;;;20.38;62.65;100081.47;4990779;28;20924;-49
2023/06/12 01:37:43;;;;;;;11.27;7.60;;;;;;;20.37;62.66;100074.50;5073590;27;20401;-54
2023/06/12 01:40:12;;;;;;;12.75;7.53;;;;;;;20.43;62.58;100084.72;5042338;28;20052;-54
2023/06/12 01:42:40;;;;;;;14.48;8.15;;;;;;;20.42;62.49;100083.03;5052018;28;20699;-52
2023/06/12 01:45:07;;;;;;;10.98;7.40;;;;;;;20.40;62.30;100082.25;5028977;28;20037;-52
2023/06/12 01:47:34;;;;;;;13.02;8.20;;;;;;;20.40;62.42;100080.47;5035240;28;20114;-50
2023/06/12 01:50:04;;;;;;;13.15;7.55;;;;;;;20.41;62.44;100076.06;5063741;28;20189;-56
2023/06/12 01:52:32;;;;;;;12.48;7.55;;;;;;;20.39;62.90;100078.78;5065348;28;20045;-56
2023/06/12 01:55:00;;;;;;;12.05;7.95;;;;;;;20.37;62.95;100071.88;5044856;28;20061;-56
2023/06/12 01:57:27;;;;;;;12.02;8.00;;;;;;;20.38;62.65;100073.56;5059255;28;20045;-58
2023/06/12 01:59:54;;;;;;;11.52;7.68;;;;;;;20.39;62.84;100072.63;5037471;28;20041;-57
2023/06/12 02:02:21;;;;;;;12.88;8.45;;;;;;;20.39;62.59;100067.38;5054964;28;20486;-57
2023/06/12 02:04:48;;;;;;;12.75;8.02;;;;;;;20.40;62.53;100063.84;5043549;28;20075;-53
2023/06/12 02:07:14;;;;;;;13.43;8.88;;;;;;;20.41;62.74;100055.03;5043873;28;20049;-54
2023/06/12 02:09:41;;;;;;;14.25;9.35;;;;;;;20.40;62.70;100056.78;5054944;28;20072;-57
2023/06/12 02:12:08;;;;;;;12.27;7.55;;;;;;;20.40;63.09;100054.16;5030069;28;20057;-50
2023/06/12 02:14:35;;;;;;;14.13;8.27;;;;;;;20.40;63.00;100053.34;5037510;28;20053;-54
2023/06/12 02:17:03;;;;;;;13.60;8.13;;;;;;;20.40;62.95;100053.34;5049634;28;20091;-55
2023/06/12 02:19:30;;;;;;;13.48;8.13;;;;;;;20.39;63.10;100056.84;5051223;28;20675;-54
2023/06/12 02:21:57;;;;;;;13.40;8.57;;;;;;;20.38;63.04;100049.91;5058339;28;20084;-54
2023/06/12 02:24:26;;;;;;;14.48;9.00;;;;;;;20.36;63.12;100052.59;5054831;28;20506;-51
2023/06/12 02:26:53;;;;;;;14.32;8.20;;;;;;;20.35;63.05;100044.75;5058002;28;20132;-56
2023/06/12 02:29:19;;;;;;;15.55;9.30;;;;;;;20.32;62.93;100044.91;5037987;28;20046;-57
2023/06/12 02:31:46;;;;;;;14.07;8.45;;;;;;;20.30;63.08;100045.00;5044373;28;20114;-53
2023/06/12 02:34:12;;;;;;;14.63;8.73;;;;;;;20.30;63.21;100042.38;5046242;28;20157;-51
2023/06/12 02:36:41;;;;;;;13.65;9.18;;;;;;;20.29;63.19;100045.88;5033926;28;20132;-51
2023/06/12 02:39:09;;;;;;;14.30;8.05;;;;;;;20.26;63.13;100046.88;5051628;28;20665;-54
2023/06/12 02:41:36;;;;;;;11.63;8.07;;;;;;;20.26;63.07;100052.13;5030811;28;20053;-49
2023/06/12 02:44:02;;;;;;;17.27;8.75;;;;;;;20.25;62.83;100042.56;5037218;28;20064;-52
2023/06/12 02:46:29;;;;;;;12.90;8.27;;;;;;;20.23;63.28;100046.16;5029673;28;20052;-50
2023/06/12 02:48:56;;;;;;;16.33;8.65;;;;;;;20.21;63.12;100043.59;5024047;28;20144;-54
2023/06/12 02:51:22;;;;;;;12.73;8.50;;;;;;;20.21;63.04;100040.97;5040991;28;20045;-49
2023/06/12 02:53:52;;;;;;;17.02;8.38;;;;;;;20.19;62.98;100032.28;5048528;28;20092;-56
2023/06/12 02:56:19;;;;;;;14.55;10.27;;;;;;;20.17;63.43;100037.59;5031225;28;20449;-57
2023/06/12 02:58:46;;;;;;;15.52;9.35;;;;;;;20.16;63.60;100035.03;5029074;28;20805;-50
2023/06/12 03:01:16;;;;;;;13.18;9.00;;;;;;;20.16;63.32;100037.66;5026713;28;20059;-49
2023/06/12 03:03:44;;;;;;;15.00;9.25;;;;;;;20.14;63.48;100032.50;5042131;28;20098;-54
2023/06/12 03:06:11;;;;;;;15.75;9.40;;;;;;;20.15;63.84;100035.97;5043836;28;20053;-48
2023/06/12 03:08:38;;;;;;;13.88;8.85;;;;;;;20.14;63.87;100043.03;5044000;28;20171;-52
2023/06/12 03:11:05;;;;;;;15.20;9.43;;;;;;;20.12;63.93;100046.63;5044674;28;20056;-51
2023/06/12 03:13:32;;;;;;;13.90;9.23;;;;;;;20.07;63.68;100040.72;5042705;28;20057;-55
2023/06/12 03:15:59;;;;;;;13.88;8.90;;;;;;;20.06;63.86;100039.84;5033657;28;20128;-55
2023/06/12 03:18:25;;;;;;;14.32;8.57;;;;;;;20.04;63.85;100037.28;5023975;28;20049;-54
2023/06/12 03:20:52;;;;;;;14.10;8.40;;;;;;;20.03;64.11;100035.56;5041710;28;20625;-56
2023/06/12 03:23:19;;;;;;;15.32;9.70;;;;;;;20.02;64.08;100039.13;5017306;28;20548;-55
2023/06/12 03:25:47;;;;;;;15.73;9.45;;;;;;;20.00;64.16;100030.44;5048299;28;20046;-54
2023/06/12 03:28:14;;;;;;;14.95;8.80;;;;;;;20.00;63.89;100033.06;5030078;28;20053;-55
2023/06/12 03:30:40;;;;;;;14.35;9.23;;;;;;;20.00;63.94;100030.44;5034838;28;20037;-49
2023/06/12 03:33:09;;;;;;;15.77;9.40;;;;;;;19.99;63.66;100034.00;5030766;28;20045;-54
2023/06/12 03:35:36;;;;;;;15.65;9.35;;;;;;;20.00;64.13;100035.69;5043541;28;20064;-53
2023/06/12 03:38:03;;;;;;;16.85;9.57;;;;;;;19.99;64.09;100044.50;5024466;28;20064;-51
2023/06/12 03:40:29;;;;;;;17.02;9.93;;;;;;;19.95;64.27;100050.78;5015037;28;20532;-51
2023/06/12 03:42:56;;;;;;;17.20;9.20;;;;;;;19.93;64.44;100047.38;5020668;28;20040;-48
2023/06/12 03:45:22;;;;;;;16.52;9.80;;;;;;;19.93;64.32;100038.63;5036123;28;20049;-50
2023/06/12 03:47:49;;;;;;;17.20;11.13;;;;;;;19.92;64.43;100043.03;5016474;28;21251;-49
2023/06/12 03:50:16;;;;;;;14.48;9.52;;;;;;;19.91;64.57;100036.94;5015094;28;20500;-56
2023/06/12 03:52:43;;;;;;;15.27;9.73;;;;;;;19.92;64.79;100035.13;5032020;28;20054;-50
2023/06/12 03:55:10;;;;;;;18.13;8.95;;;;;;;19.91;64.43;100034.31;5030265;28;20046;-56
2023/06/12 03:57:36;;;;;;;16.17;9.38;;;;;;;19.90;64.62;100029.13;5018885;28;20053;-54
2023/06/12 04:00:05;;;;;;;17.27;10.82;;;;;;;19.88;64.51;100031.81;5037179;28;20049;-51
2023/06/12 04:02:31;;;;;;;15.57;10.23;;;;;;;19.89;64.69;100032.63;5045562;28;20049;-51
2023/06/12 04:04:58;;;;;;;15.30;9.85;;;;;;;19.88;64.93;100030.94;5022343;28;20050;-53
2023/06/12 04:07:26;;;;;;;16.90;10.90;;;;;;;19.88;65.26;100037.06;5031394;28;20378;-52
2023/06/12 04:09:52;;;;;;;16.33;9.70;;;;;;;19.87;65.03;100029.22;5032192;28;20109;-50
2023/06/12 04:12:19;;;;;;;16.55;9.98;;;;;;;19.88;64.91;100041.44;5021606;28;20041;-49
2023/06/12 04:14:45;;;;;;;16.00;10.63;;;;;;;19.89;65.19;100040.53;5045303;28;20072;-50
2023/06/12 04:17:12;;;;;;;16.02;9.57;;;;;;;19.88;65.41;100030.94;5041896;28;20107;-53
2023/06/12 04:19:40;;;;;;;16.15;9.98;;;;;;;19.87;65.34;100037.13;5027031;28;20045;-53
2023/06/12 04:22:06;;;;;;;17.00;9.90;;;;;;;19.87;65.38;100037.97;5027300;28;20049;-54
2023/06/12 04:24:33;;;;;;;17.63;10.57;;;;;;;19.86;64.85;100043.31;5043520;28;20126;-50
2023/06/12 04:27:01;;;;;;;16.88;10.77;;;;;;;19.85;65.47;100044.19;5035192;28;20061;-50
2023/06/12 04:29:29;;;;;;;16.67;9.75;;;;;;;19.82;65.20;100041.72;5039001;28;20056;-49
2023/06/12 04:31:56;;;;;;;16.63;10.20;;;;;;;19.80;65.69;100041.78;5029260;28;20102;-54
2023/06/12 04:34:24;;;;;;;17.13;9.90;;;;;;;19.80;65.45;100043.53;5027111;28;20046;-51
2023/06/12 04:36:52;;;;;;;17.35;10.15;;;;;;;19.78;65.39;100052.34;5025950;28;20128;-54
2023/06/12 04:39:19;;;;;;;15.20;9.90;;;;;;;19.78;65.68;100047.09;5041405;28;20103;-55
2023/06/12 04:41:47;;;;;;;17.92;10.38;;;;;;;19.78;65.17;100044.47;5045132;28;20049;-52
2023/06/12 04:44:14;;;;;;;16.38;9.48;;;;;;;19.80;65.70;100051.44;5019915;28;20038;-56
2023/06/12 04:46:40;;;;;;;15.98;10.00;;;;;;;19.80;65.62;100049.66;5016611;28;20050;-53
2023/06/12 04:49:08;;;;;;;17.30;9.70;;;;;;;19.79;65.72;100042.69;5017500;28;20496;-52
2023/06/12 04:51:35;;;;;;;16.95;10.18;;;;;;;19.81;65.49;100045.25;5019152;28;20049;-52
2023/06/12 04:54:02;;;;;;;17.73;9.82;;;;;;;19.84;65.89;100045.13;5044104;28;20143;-52
2023/06/12 04:56:31;;;;;;;17.25;10.40;;;;;;;19.89;65.63;100048.41;5016982;28;20523;-56
2023/06/12 04:58:58;;;;;;;15.80;10.50;;;;;;;19.95;66.23;100042.91;5034844;28;20045;-53
2023/06/12 05:01:25;;;;;;;15.25;10.25;;;;;;;20.00;65.75;100040.97;5037121;28;20068;-47
2023/06/12 05:03:52;;;;;;;16.27;10.18;;;;;;;20.07;65.92;100048.59;5044252;28;20110;-54
2023/06/12 05:06:20;;;;;;;18.35;10.45;;;;;;;20.12;65.79;100046.63;5036995;28;20045;-54
2023/06/12 05:08:47;;;;;;;18.45;10.98;;;;;;;20.19;65.85;100040.19;5006307;28;20052;-50
2023/06/12 05:11:13;;;;;;;20.08;10.40;;;;;;;20.24;66.03;100042.63;5019279;28;20041;-51
2023/06/12 05:13:40;;;;;;;15.88;10.05;;;;;;;20.31;65.55;100043.19;5016640;28;20117;-53
2023/06/12 05:16:07;;;;;;;17.50;9.95;;;;;;;20.38;65.85;100045.50;5015563;28;20050;-53
2023/06/12 05:18:34;;;;;;;16.30;10.40;;;;;;;20.47;66.17;100038.97;5025117;28;20049;-48
2023/06/12 05:21:01;;;;;;;22.27;10.32;;;;;;;20.57;65.87;100047.31;5044197;28;20057;-56
2023/06/12 05:23:27;;;;;;;17.27;10.68;;;;;;;20.62;65.61;100047.97;5018699;28;20045;-52
2023/06/12 05:25:54;;;;;;;16.45;11.18;;;;;;;20.69;65.56;100053.78;5027117;28;20107;-57
2023/06/12 05:28:21;;;;;;;15.65;10.70;;;;;;;20.76;65.90;100049.97;5029348;28;20049;-56
2023/06/12 05:30:48;;;;;;;16.77;11.40;;;;;;;20.90;66.04;100045.88;5021743;28;20064;-56
2023/06/12 05:33:16;;;;;;;17.67;9.95;;;;;;;20.99;65.58;100050.72;5034823;28;20060;-53
2023/06/12 05:35:43;;;;;;;17.42;10.25;;;;;;;21.09;65.80;100058.19;5018489;28;20049;-53
2023/06/12 05:38:11;;;;;;;17.00;10.48;;;;;;;21.20;65.37;100063.78;5036839;28;20162;-56
2023/06/12 05:40:37;;;;;;;15.98;9.85;;;;;;;21.30;64.92;100058.94;5021424;28;20099;-52
2023/06/12 05:43:04;;;;;;;14.00;10.00;;;;;;;21.37;65.22;100064.78;5024397;28;20065;-53
2023/06/12 05:45:31;;;;;;;15.27;9.45;;;;;;;21.44;64.92;100061.78;5028406;28;20052;-54
2023/06/12 05:48:01;;;;;;;13.32;9.25;;;;;;;21.60;65.21;100068.06;5007510;28;20052;-55
2023/06/12 05:50:28;;;;;;;15.85;10.10;;;;;;;21.75;64.37;100064.72;5006136;28;20045;-51
2023/06/12 05:52:54;;;;;;;15.73;10.55;;;;;;;21.92;64.49;100066.53;5012733;28;20048;-52
2023/06/12 05:55:21;;;;;;;18.23;10.65;;;;;;;22.11;64.52;100064.72;5021357;28;20049;-54
2023/06/12 05:57:48;;;;;;;16.65;10.50;;;;;;;22.24;63.83;100057.91;5022152;28;20127;-55
2023/06/12 06:00:21;;;;;;;15.32;10.90;;;;;;;22.40;63.88;100065.88;5010721;28;20428;-53
2023/06/12 06:02:48;;;;;;;16.17;11.05;;;;;;;22.55;63.83;100064.22;5034616;28;20491;-53
2023/06/12 06:05:16;;;;;;;15.13;9.98;;;;;;;22.71;62.87;100064.31;5018615;28;20514;-53
2023/06/12 06:07:43;;;;;;;16.42;9.40;;;;;;;22.80;61.75;100068.22;5020104;28;20037;-54
2023/06/12 06:10:10;;;;;;;16.63;10.63;;;;;;;22.77;61.36;100067.53;5031399;28;20060;-54
2023/06/12 06:12:37;;;;;;;16.70;10.93;;;;;;;22.73;61.01;100064.22;5030043;28;20041;-54
2023/06/12 06:15:04;;;;;;;15.32;10.80;;;;;;;22.70;61.08;100061.75;5010985;28;20135;-51
2023/06/12 06:17:31;;;;;;;18.70;10.88;;;;;;;22.69;60.78;100060.88;5012449;28;20076;-53
2023/06/12 06:19:58;;;;;;;16.60;10.45;;;;;;;22.75;61.93;100064.97;5029141;28;20088;-56
2023/06/12 06:22:24;;;;;;;19.67;11.30;;;;;;;22.88;61.76;100053.75;5022989;28;20091;-56
2023/06/12 06:24:52;;;;;;;16.33;12.80;;;;;;;23.01;62.28;100060.06;5022284;28;20408;-51
2023/06/12 06:27:18;;;;;;;16.48;10.73;;;;;;;23.21;62.25;100072.16;5035389;28;20044;-52
2023/06/12 06:29:45;;;;;;;17.20;11.05;;;;;;;23.39;61.78;100063.31;5014161;28;20054;-55
2023/06/12 06:32:11;;;;;;;15.90;10.32;;;;;;;23.59;62.18;100065.69;5028021;28;20086;-56
2023/06/12 06:34:38;;;;;;;15.98;11.07;;;;;;;23.82;61.68;100074.09;5026635;28;20050;-47
2023/06/12 06:37:06;;;;;;;17.80;10.45;;;;;;;24.02;61.49;100077.38;5025537;28;20713;-53
2023/06/12 06:39:33;;;;;;;17.10;11.40;;;;;;;24.16;60.73;100079.22;5038574;28;20049;-55
2023/06/12 06:42:00;;;;;;;15.50;10.75;;;;;;;24.35;60.35;100073.66;5035843;28;20057;-51
2023/06/12 06:44:26;;;;;;;16.80;10.05;;;;;;;24.46;60.04;100074.81;5015182;28;20093;-53
2023/06/12 06:46:55;;;;;;;15.25;11.25;;;;;;;24.50;59.42;100079.84;5012265;28;20053;-56
2023/06/12 06:49:22;;;;;;;19.40;11.75;;;;;;;24.50;58.77;100092.22;5021654;28;20107;-51
2023/06/12 06:51:49;;;;;;;19.65;11.90;;;;;;;24.36;58.41;100093.91;5034087;28;20046;-54
2023/06/12 06:54:15;;;;;;;17.85;11.95;;;;;;;24.25;59.19;100099.00;5011744;28;20080;-51
2023/06/12 06:56:42;;;;;;;17.23;12.57;;;;;;;24.29;59.20;100100.50;5010026;28;20041;-51
2023/06/12 06:59:09;;;;;;;16.00;11.57;;;;;;;24.44;59.08;100090.78;5030794;28;20051;-58
2023/06/12 07:01:37;;;;;;;16.63;11.68;;;;;;;24.65;58.78;100096.56;5020218;28;20066;-56
2023/06/12 07:04:04;;;;;;;18.55;11.82;;;;;;;24.87;58.60;100079.38;5017545;28;20127;-53
2023/06/12 07:06:31;;;;;;;16.83;11.30;;;;;;;25.08;58.22;100101.94;5016493;28;20138;-51
2023/06/12 07:08:58;;;;;;;17.75;11.55;;;;;;;25.29;57.93;100097.94;5022023;28;20178;-51
2023/06/12 07:11:24;;;;;;;17.85;11.93;;;;;;;25.50;57.63;100096.66;5014856;28;20048;-56
2023/06/12 07:13:51;;;;;;;17.75;11.82;;;;;;;25.76;57.65;100102.06;5028687;28;20134;-53
2023/06/12 07:16:18;;;;;;;17.73;11.35;;;;;;;25.98;56.38;100095.34;5036462;28;20069;-55
2023/06/12 07:18:45;;;;;;;18.95;12.00;;;;;;;26.15;55.89;100097.72;5019652;28;20050;-54
2023/06/12 07:21:14;;;;;;;18.65;13.45;;;;;;;26.22;55.54;100105.25;5019189;28;20550;-51
2023/06/12 07:23:41;;;;;;;17.58;12.07;;;;;;;26.33;55.34;100100.09;5038005;28;20052;-53
2023/06/12 07:26:11;;;;;;;16.20;11.23;;;;;;;26.51;55.24;100097.13;5040222;28;20055;-55
2023/06/12 07:28:43;;;;;;;16.25;11.60;;;;;;;26.74;54.35;100097.34;5044131;28;20060;-51
2023/06/12 07:31:10;;;;;;;18.77;12.18;;;;;;;26.97;54.17;100102.84;5030544;28;20043;-49
2023/06/12 07:33:37;;;;;;;18.10;11.77;;;;;;;27.12;52.96;100099.06;5034595;28;20052;-56
2023/06/12 07:36:03;;;;;;;18.35;12.07;;;;;;;27.29;53.20;100102.34;5017355;28;20057;-54
2023/06/12 07:38:30;;;;;;;16.25;11.10;;;;;;;27.28;52.28;100108.59;5040657;28;20041;-55
2023/06/12 07:40:57;;;;;;;15.55;10.75;;;;;;;27.36;51.71;100100.09;5021929;28;20137;-53
2023/06/12 07:43:23;;;;;;;15.25;10.98;;;;;;;27.49;52.61;100105.34;5028399;28;20381;-53
2023/06/12 07:45:50;;;;;;;17.10;11.68;;;;;;;27.61;50.87;100101.78;5036231;28;20045;-56
2023/06/12 07:48:16;;;;;;;15.93;12.13;;;;;;;27.67;52.01;100104.03;5039279;28;20068;-53
2023/06/12 07:50:43;;;;;;;17.77;12.40;;;;;;;27.70;50.79;100106.44;5037532;28;20057;-50
2023/06/12 07:53:10;;;;;;;17.38;13.02;;;;;;;27.77;50.67;100103.34;5024860;28;20037;-55
2023/06/12 07:55:57;;;;;;;17.88;11.98;;;;;;;27.91;50.44;100108.47;5038702;28;20105;-51
2023/06/12 07:58:25;;;;;;;17.95;13.55;;;;;;;28.09;49.44;100100.91;5038906;28;20045;-52
2023/06/12 08:00:55;;;;;;;19.90;13.07;;;;;;;28.14;49.99;100105.88;5029763;28;20612;-53
2023/06/12 08:03:25;;;;;;;20.05;13.23;;;;;;;28.17;49.44;100102.97;5014898;28;20089;-48
2023/06/12 08:05:57;;;;;;;19.65;13.07;;;;;;;28.23;49.84;100102.50;5013896;28;20061;-55
2023/06/12 08:08:24;;;;;;;17.35;12.27;;;;;;;28.29;49.02;100103.03;5018642;28;20104;-53
2023/06/12 08:10:51;;;;;;;18.15;12.73;;;;;;;28.42;49.52;100106.44;5037694;28;20076;-56
2023/06/12 08:13:17;;;;;;;17.60;12.63;;;;;;;28.56;49.42;100107.16;5032481;28;20064;-55
2023/06/12 08:15:44;;;;;;;17.70;14.82;;;;;;;28.64;48.39;100093.25;5021361;28;20373;-55
2023/06/12 08:18:11;;;;;;;17.65;13.73;;;;;;;28.76;48.06;100096.75;5042041;28;20048;-52
2023/06/12 08:20:37;;;;;;;17.67;12.18;;;;;;;28.67;48.30;100088.53;5036503;28;20138;-54
2023/06/12 08:23:04;;;;;;;18.75;13.15;;;;;;;28.79;48.13;100092.03;5036409;28;20057;-54
2023/06/12 08:25:32;;;;;;;21.33;12.63;;;;;;;29.02;48.42;100093.88;5028893;28;20046;-51
2023/06/12 08:27:59;;;;;;;17.73;12.70;;;;;;;29.19;48.25;100080.03;5020129;28;20175;-54
2023/06/12 08:30:26;;;;;;;17.08;12.90;;;;;;;29.40;48.23;100081.91;5022021;28;20041;-56
2023/06/12 08:32:53;;;;;;;16.60;12.82;;;;;;;29.50;47.48;100080.19;5037312;28;20480;-52
2023/06/12 08:35:20;;;;;;;19.05;13.32;;;;;;;29.66;47.21;100076.28;5020868;28;20134;-55
2023/06/12 08:37:47;;;;;;;14.73;12.13;;;;;;;29.80;46.83;100074.25;5018228;28;20042;-51
2023/06/12 08:40:13;;;;;;;16.40;11.68;;;;;;;29.98;46.23;100087.84;5019363;28;20053;-54
2023/06/12 08:42:46;;;;;;;14.50;10.30;;;;;;;30.12;46.70;100078.69;5018631;28;20045;-55
2023/06/12 08:45:15;;;;;;;18.35;12.50;;;;;;;30.24;46.38;100080.34;5038139;28;20117;-54
2023/06/12 08:47:49;;;;;;;14.95;11.27;;;;;;;30.29;45.74;100084.44;5048835;28;20472;-53
2023/06/12 08:50:17;;;;;;;19.75;13.20;;;;;;;30.40;45.58;100081.69;5037678;28;20688;-51
2023/06/12 08:52:44;;;;;;;17.52;12.32;;;;;;;30.53;45.46;100082.31;5047298;28;20056;-58
2023/06/12 08:55:13;;;;;;;14.63;11.93;;;;;;;30.53;44.95;100079.63;5022475;28;20489;-56
2023/06/12 08:57:41;;;;;;;13.65;11.32;;;;;;;30.62;44.49;100079.81;5031047;28;20049;-52
2023/06/12 09:00:17;;;;;;;14.38;10.82;;;;;;;30.65;44.23;100074.19;5011929;28;20216;-53
2023/06/12 09:02:49;;;;;;;14.07;11.75;;;;;;;30.80;44.28;100071.19;5016667;28;20061;-54
2023/06/12 09:05:23;;;;;;;12.90;10.38;;;;;;;31.03;44.25;100083.34;5044292;28;20075;-49
2023/06/12 09:07:50;;;;;;;15.88;11.82;;;;;;;31.29;43.80;100077.50;5027132;28;20045;-54
2023/06/12 09:10:17;;;;;;;12.77;10.27;;;;;;;31.45;44.12;100081.47;5036925;28;20504;-58
2023/06/12 09:12:45;;;;;;;15.80;11.48;;;;;;;31.61;43.79;100088.94;5033243;28;20057;-52
2023/06/12 09:15:17;;;;;;;13.90;10.75;;;;;;;31.70;43.69;100087.25;5046425;28;20095;-58
2023/06/12 09:17:50;;;;;;;19.17;11.95;;;;;;;31.87;43.58;100084.81;5039950;28;20518;-51
2023/06/12 09:20:26;;;;;;;14.80;10.88;;;;;;;31.97;41.99;100083.03;5033231;28;20575;-50
2023/06/12 09:23:08;;;;;;;12.40;9.90;;;;;;;32.04;42.58;100086.81;5020431;28;20051;-56
2023/06/12 09:25:37;;;;;;;12.73;10.57;;;;;;;32.09;42.37;100091.75;5020685;28;20041;-54
2023/06/12 09:28:04;;;;;;;13.63;12.23;;;;;;;32.02;42.09;100096.00;5027612;28;20758;-55
2023/06/12 09:30:32;;;;;;;12.90;10.60;;;;;;;32.02;42.26;100088.78;5042245;28;20058;-56
2023/06/12 09:33:00;;;;;;;12.25;9.98;;;;;;;32.12;42.50;100087.94;5029096;28;20059;-51
2023/06/12 09:35:27;;;;;;;13.43;12.02;;;;;;;32.36;41.73;100090.13;5009484;28;20440;-49
2023/06/12 09:37:54;;;;;;;12.15;10.73;;;;;;;32.35;41.04;100084.91;5032222;28;20045;-51
2023/06/12 09:40:21;;;;;;;13.13;9.93;;;;;;;32.27;40.78;100097.19;5037476;28;20049;-51
2023/06/12 09:42:49;;;;;;;12.20;9.38;;;;;;;32.31;40.79;100093.25;5039590;28;20055;-53
2023/06/12 09:45:23;;;;;;;14.98;10.15;;;;;;;32.28;40.50;100088.16;5039908;28;20132;-47
2023/06/12 09:47:52;;;;;;;12.15;9.68;;;;;;;32.17;40.26;100096.38;5015589;28;20054;-48
2023/06/12 09:50:19;;;;;;;12.32;10.07;;;;;;;32.14;40.38;100097.50;5033241;28;20130;-46
2023/06/12 09:52:47;;;;;;;11.10;9.40;;;;;;;32.10;40.65;100100.59;5038657;28;20045;-47
2023/06/12 09:55:16;;;;;;;14.60;9.98;;;;;;;32.01;40.50;100097.00;5025308;28;20046;-49
2023/06/12 09:57:49;;;;;;;13.68;10.23;;;;;;;31.89;41.15;100090.91;5021654;28;20057;-51
2023/06/12 10:00:17;;;;;;;12.82;10.68;;;;;;;31.75;40.83;100087.69;5017852;28;20049;-52
2023/06/12 10:02:52;;;;;;;11.13;9.30;;;;;;;31.66;41.31;100093.88;5018967;28;20516;-52
2023/06/12 10:05:22;;;;;;;;;;;;;;;31.64;41.73;100101.22;5041053;28;20068;-49
2023/06/12 10:07:53;;;;;;;10.85;9.43;;;;;;;31.86;41.53;100094.72;5026750;28;19921;-52
2023/06/12 10:10:22;;;;;;;16.65;10.77;;;;;;;31.96;41.49;100099.22;5031415;28;20107;-51
2023/06/12 10:12:50;;;;;;;12.25;9.52;;;;;;;31.97;41.12;100096.41;5043885;28;20052;-50
2023/06/12 10:15:17;;;;;;;11.90;9.88;;;;;;;31.77;39.94;100091.03;5042204;28;20049;-47
2023/06/12 10:17:44;;;;;;;12.57;10.82;;;;;;;31.71;40.78;100102.31;5021824;28;20073;-45
2023/06/12 10:20:12;;;;;;;11.40;9.40;;;;;;;31.54;40.99;100090.50;5017789;28;20046;-46
2023/06/12 10:22:39;;;;;;;11.65;10.20;;;;;;;31.52;41.51;100097.81;5033250;28;20053;-46
2023/06/12 10:25:09;;;;;;;12.02;9.32;;;;;;;31.57;41.24;100100.06;5030404;28;20805;-50
2023/06/12 10:27:38;;;;;;;13.50;9.98;;;;;;;31.66;40.47;100094.72;5022398;28;20051;-48
2023/06/12 10:30:10;;;;;;;13.70;9.85;;;;;;;31.73;40.79;100095.00;5042236;28;20041;-47
2023/06/12 10:32:38;;;;;;;13.13;9.93;;;;;;;31.78;41.36;100087.38;5038785;28;20040;-54
2023/06/12 10:35:06;;;;;;;14.15;9.93;;;;;;;31.77;41.31;100091.03;5039702;28;20044;-44
2023/06/12 10:37:39;;;;;;;11.73;10.13;;;;;;;31.80;41.20;100095.25;5046633;28;20045;-46
2023/06/12 10:42:49;;;;;;;14.48;12.82;;;;;;;31.85;41.08;100086.81;5039883;27;20394;-45
2023/06/12 10:50:44;;;;;;;15.48;9.23;;;;;;;31.54;41.18;100095.84;5021068;27;20412;-43
2023/06/12 10:53:14;;;;;;;13.80;10.27;;;;;;;31.35;41.39;100096.66;4996814;28;20061;-44
2023/06/12 10:55:43;;;;;;;11.65;8.80;;;;;;;31.18;41.02;100099.00;5002739;28;20046;-44
2023/06/12 10:58:13;;;;;;;13.32;9.38;;;;;;;31.07;41.39;100088.44;5007250;28;20462;-44
2023/06/12 11:03:25;;;;;;;14.25;12.65;;;;;;;30.97;41.64;100091.91;5058002;28;20384;-47
2023/06/12 11:05:55;;;;;;;19.75;11.85;;;;;;;30.98;42.24;100090.94;5016586;28;20053;-48
2023/06/12 11:08:25;;;;;;;14.13;11.38;;;;;;;30.98;41.64;100093.63;5020312;28;20103;-49
2023/06/12 11:10:52;;;;;;;14.25;12.75;;;;;;;31.07;41.75;100088.44;5027176;28;20143;-47
2023/06/12 11:13:24;;;;;;;13.30;11.35;;;;;;;31.09;41.17;100086.44;5029154;28;20053;-45
2023/06/12 11:15:51;;;;;;;13.30;10.48;;;;;;;31.18;41.10;100082.97;5026313;28;20520;-45
2023/06/12 11:18:19;;;;;;;11.32;10.13;;;;;;;31.24;40.94;100085.06;5039407;28;20071;-45
2023/06/12 11:20:55;;;;;;;13.50;11.68;;;;;;;31.25;39.99;100084.09;5020344;28;20049;-50
2023/06/12 11:23:23;;;;;;;12.10;10.25;;;;;;;31.28;40.67;100089.16;5020868;28;20102;-44
2023/06/12 11:25:53;;;;;;;12.55;11.25;;;;;;;31.33;40.44;100087.94;5041648;28;20057;-49
2023/06/12 11:28:23;;;;;;;12.40;11.10;;;;;;;31.40;40.68;100089.06;5029842;28;20515;-48
2023/06/12 11:30:51;;;;;;;18.55;12.82;;;;;;;31.42;40.38;100081.75;5005747;28;20053;-45
2023/06/12 11:33:35;;;;;;;15.75;13.20;;;;;;;31.48;40.56;100081.22;5030555;28;20609;-46
2023/06/12 11:36:02;;;;;;;14.07;11.68;;;;;;;31.59;40.40;100082.03;5019191;28;20053;-46
2023/06/12 11:38:29;;;;;;;12.50;9.82;;;;;;;31.61;40.16;100080.91;5018132;28;20609;-45